sensor_id;sensor_type;location;lat;lon;timestamp;P1;durP1;ratioP1;P2;durP2;ratioP2
25950;SDS011;13748;52.240;6.002;2022-08-01T00:01:32;8.80;;;6.30;;
25950;SDS011;13748;52.240;6.002;2022-08-01T00:03:59;9.85;;;6.45;;
25950;SDS011;13748;52.240;6.002;2022-08-01T00:06:26;8.43;;;5.53;;
25950;SDS011;13748;52.240;6.002;2022-08-01T00:08:55;10.65;;;5.78;;
25950;SDS011;13748;52.240;6.002;2022-08-01T00:11:22;7.95;;;5.82;;
25950;SDS011;13748;52.240;6.002;2022-08-01T00:13:49;10.73;;;6.03;;
25950;SDS011;13748;52.240;6.002;2022-08-01T00:16:16;9.38;;;5.32;;
25950;SDS011;13748;52.240;6.002;2022-08-01T00:18:43;9.63;;;6.03;;
25950;SDS011;13748;52.240;6.002;2022-08-01T00:21:10;9.90;;;5.40;;
25950;SDS011;13748;52.240;6.002;2022-08-01T00:23:37;8.57;;;4.78;;
25950;SDS011;13748;52.240;6.002;2022-08-01T00:26:04;8.40;;;5.63;;
25950;SDS011;13748;52.240;6.002;2022-08-01T00:28:32;8.95;;;5.15;;
25950;SDS011;13748;52.240;6.002;2022-08-01T00:31:00;7.45;;;5.30;;
25950;SDS011;13748;52.240;6.002;2022-08-01T00:33:27;8.02;;;5.03;;
25950;SDS011;13748;52.240;6.002;2022-08-01T00:35:58;6.82;;;5.20;;
25950;SDS011;13748;52.240;6.002;2022-08-01T00:38:31;7.72;;;4.80;;
25950;SDS011;13748;52.240;6.002;2022-08-01T00:40:59;9.20;;;5.00;;
25950;SDS011;13748;52.240;6.002;2022-08-01T00:43:26;7.68;;;4.80;;
25950;SDS011;13748;52.240;6.002;2022-08-01T00:45:53;6.82;;;4.88;;
25950;SDS011;13748;52.240;6.002;2022-08-01T00:48:20;7.53;;;4.88;;
25950;SDS011;13748;52.240;6.002;2022-08-01T00:50:49;9.73;;;4.80;;
25950;SDS011;13748;52.240;6.002;2022-08-01T00:53:16;10.05;;;5.43;;
25950;SDS011;13748;52.240;6.002;2022-08-01T00:55:44;8.48;;;5.10;;
25950;SDS011;13748;52.240;6.002;2022-08-01T00:58:11;7.32;;;4.97;;
25950;SDS011;13748;52.240;6.002;2022-08-01T01:00:40;6.30;;;4.45;;
25950;SDS011;13748;52.240;6.002;2022-08-01T01:03:19;7.97;;;5.72;;
25950;SDS011;13748;52.240;6.002;2022-08-01T01:09:00;7.93;;;5.00;;
25950;SDS011;13748;52.240;6.002;2022-08-01T01:17:18;9.20;;;5.63;;
25950;SDS011;13748;52.240;6.002;2022-08-01T01:20:10;9.68;;;5.78;;
25950;SDS011;13748;52.240;6.002;2022-08-01T01:30:56;10.45;;;6.63;;
25950;SDS011;13748;52.240;6.002;2022-08-01T01:33:25;11.40;;;6.13;;
25950;SDS011;13748;52.240;6.002;2022-08-01T01:36:12;11.95;;;6.20;;
25950;SDS011;13748;52.240;6.002;2022-08-01T01:38:41;11.40;;;5.38;;
25950;SDS011;13748;52.240;6.002;2022-08-01T01:41:12;14.15;;;6.53;;
25950;SDS011;13748;52.240;6.002;2022-08-01T01:43:43;10.75;;;6.47;;
25950;SDS011;13748;52.240;6.002;2022-08-01T01:46:12;9.55;;;5.60;;
25950;SDS011;13748;52.240;6.002;2022-08-01T01:48:43;10.48;;;6.35;;
25950;SDS011;13748;52.240;6.002;2022-08-01T01:51:13;10.20;;;6.30;;
25950;SDS011;13748;52.240;6.002;2022-08-01T01:53:41;11.35;;;6.90;;
25950;SDS011;13748;52.240;6.002;2022-08-01T01:56:10;7.93;;;5.07;;
25950;SDS011;13748;52.240;6.002;2022-08-01T01:58:55;8.07;;;5.35;;
25950;SDS011;13748;52.240;6.002;2022-08-01T02:02:32;5.45;;;3.65;;
25950;SDS011;13748;52.240;6.002;2022-08-01T02:05:01;6.07;;;4.13;;
25950;SDS011;13748;52.240;6.002;2022-08-01T02:07:32;5.85;;;3.60;;
25950;SDS011;13748;52.240;6.002;2022-08-01T02:10:02;6.30;;;4.13;;
25950;SDS011;13748;52.240;6.002;2022-08-01T02:12:33;4.57;;;3.50;;
25950;SDS011;13748;52.240;6.002;2022-08-01T02:15:03;6.15;;;3.75;;
25950;SDS011;13748;52.240;6.002;2022-08-01T02:17:31;5.78;;;3.53;;
25950;SDS011;13748;52.240;6.002;2022-08-01T02:20:02;5.63;;;3.60;;
25950;SDS011;13748;52.240;6.002;2022-08-01T02:22:31;6.10;;;3.92;;
25950;SDS011;13748;52.240;6.002;2022-08-01T02:25:03;5.78;;;3.95;;
25950;SDS011;13748;52.240;6.002;2022-08-01T02:27:40;5.85;;;3.85;;
25950;SDS011;13748;52.240;6.002;2022-08-01T02:30:22;7.20;;;4.53;;
25950;SDS011;13748;52.240;6.002;2022-08-01T02:33:04;6.25;;;4.13;;
25950;SDS011;13748;52.240;6.002;2022-08-01T02:35:41;7.30;;;4.85;;
25950;SDS011;13748;52.240;6.002;2022-08-01T02:38:37;7.20;;;4.90;;
25950;SDS011;13748;52.240;6.002;2022-08-01T02:41:08;8.65;;;5.07;;
25950;SDS011;13748;52.240;6.002;2022-08-01T02:43:46;7.03;;;5.13;;
25950;SDS011;13748;52.240;6.002;2022-08-01T02:46:29;7.75;;;5.15;;
25950;SDS011;13748;52.240;6.002;2022-08-01T02:49:11;7.25;;;4.10;;
25950;SDS011;13748;52.240;6.002;2022-08-01T02:51:40;7.72;;;4.78;;
25950;SDS011;13748;52.240;6.002;2022-08-01T02:54:11;7.43;;;5.25;;
25950;SDS011;13748;52.240;6.002;2022-08-01T02:56:40;8.25;;;4.88;;
25950;SDS011;13748;52.240;6.002;2022-08-01T02:59:10;7.32;;;5.00;;
25950;SDS011;13748;52.240;6.002;2022-08-01T03:01:47;7.22;;;4.78;;
25950;SDS011;13748;52.240;6.002;2022-08-01T03:04:16;6.70;;;4.53;;
25950;SDS011;13748;52.240;6.002;2022-08-01T03:06:46;7.13;;;4.57;;
25950;SDS011;13748;52.240;6.002;2022-08-01T03:09:14;6.78;;;4.57;;
25950;SDS011;13748;52.240;6.002;2022-08-01T03:11:44;6.95;;;4.45;;
25950;SDS011;13748;52.240;6.002;2022-08-01T03:14:13;5.47;;;4.05;;
25950;SDS011;13748;52.240;6.002;2022-08-01T03:16:45;7.35;;;3.97;;
25950;SDS011;13748;52.240;6.002;2022-08-01T03:19:13;7.85;;;3.67;;
25950;SDS011;13748;52.240;6.002;2022-08-01T03:21:44;5.90;;;3.83;;
25950;SDS011;13748;52.240;6.002;2022-08-01T03:24:13;7.50;;;4.10;;
25950;SDS011;13748;52.240;6.002;2022-08-01T03:26:43;4.72;;;3.58;;
25950;SDS011;13748;52.240;6.002;2022-08-01T03:29:17;4.88;;;3.47;;
25950;SDS011;13748;52.240;6.002;2022-08-01T03:31:48;5.05;;;3.33;;
25950;SDS011;13748;52.240;6.002;2022-08-01T03:34:16;4.90;;;3.42;;
25950;SDS011;13748;52.240;6.002;2022-08-01T03:36:55;4.97;;;3.53;;
25950;SDS011;13748;52.240;6.002;2022-08-01T03:39:40;5.25;;;3.33;;
25950;SDS011;13748;52.240;6.002;2022-08-01T03:42:16;5.53;;;3.50;;
25950;SDS011;13748;52.240;6.002;2022-08-01T03:44:48;5.28;;;3.40;;
25950;SDS011;13748;52.240;6.002;2022-08-01T03:47:21;5.65;;;3.97;;
25950;SDS011;13748;52.240;6.002;2022-08-01T03:49:53;4.80;;;3.30;;
25950;SDS011;13748;52.240;6.002;2022-08-01T03:52:28;5.15;;;3.53;;
25950;SDS011;13748;52.240;6.002;2022-08-01T03:55:02;4.97;;;3.50;;
25950;SDS011;13748;52.240;6.002;2022-08-01T03:57:33;4.90;;;3.55;;
25950;SDS011;13748;52.240;6.002;2022-08-01T04:00:07;5.68;;;3.72;;
25950;SDS011;13748;52.240;6.002;2022-08-01T04:02:45;5.95;;;3.83;;
25950;SDS011;13748;52.240;6.002;2022-08-01T04:05:17;9.07;;;4.68;;
25950;SDS011;13748;52.240;6.002;2022-08-01T04:07:45;9.95;;;3.95;;
25950;SDS011;13748;52.240;6.002;2022-08-01T04:10:14;6.82;;;4.32;;
25950;SDS011;13748;52.240;6.002;2022-08-01T04:12:42;5.63;;;4.25;;
25950;SDS011;13748;52.240;6.002;2022-08-01T04:15:09;7.38;;;4.43;;
25950;SDS011;13748;52.240;6.002;2022-08-01T04:17:43;9.18;;;5.25;;
25950;SDS011;13748;52.240;6.002;2022-08-01T04:20:10;7.05;;;4.68;;
25950;SDS011;13748;52.240;6.002;2022-08-01T04:22:37;7.55;;;4.45;;
25950;SDS011;13748;52.240;6.002;2022-08-01T04:28:04;6.40;;;4.57;;
25950;SDS011;13748;52.240;6.002;2022-08-01T04:30:36;7.18;;;4.63;;
25950;SDS011;13748;52.240;6.002;2022-08-01T04:33:06;10.23;;;5.40;;
25950;SDS011;13748;52.240;6.002;2022-08-01T04:35:39;3.60;;;2.50;;
25950;SDS011;13748;52.240;6.002;2022-08-01T04:38:28;3.45;;;2.35;;
25950;SDS011;13748;52.240;6.002;2022-08-01T04:41:04;3.85;;;2.10;;
25950;SDS011;13748;52.240;6.002;2022-08-01T04:43:40;2.20;;;1.95;;
25950;SDS011;13748;52.240;6.002;2022-08-01T04:46:12;2.50;;;2.10;;
25950;SDS011;13748;52.240;6.002;2022-08-01T04:48:40;5.03;;;2.10;;
25950;SDS011;13748;52.240;6.002;2022-08-01T04:51:56;2.40;;;2.05;;
25950;SDS011;13748;52.240;6.002;2022-08-01T04:54:34;2.85;;;2.42;;
25950;SDS011;13748;52.240;6.002;2022-08-01T04:57:05;2.45;;;2.20;;
25950;SDS011;13748;52.240;6.002;2022-08-01T04:59:37;3.63;;;2.65;;
25950;SDS011;13748;52.240;6.002;2022-08-01T05:02:12;3.33;;;2.85;;
25950;SDS011;13748;52.240;6.002;2022-08-01T05:04:44;4.93;;;3.22;;
25950;SDS011;13748;52.240;6.002;2022-08-01T05:07:12;4.00;;;2.78;;
25950;SDS011;13748;52.240;6.002;2022-08-01T05:09:40;4.97;;;3.05;;
25950;SDS011;13748;52.240;6.002;2022-08-01T05:12:13;4.05;;;2.78;;
25950;SDS011;13748;52.240;6.002;2022-08-01T05:14:55;5.38;;;2.97;;
25950;SDS011;13748;52.240;6.002;2022-08-01T05:17:24;3.83;;;3.00;;
25950;SDS011;13748;52.240;6.002;2022-08-01T05:19:55;3.58;;;2.85;;
25950;SDS011;13748;52.240;6.002;2022-08-01T05:22:33;6.00;;;3.63;;
25950;SDS011;13748;52.240;6.002;2022-08-01T05:25:04;5.07;;;3.30;;
25950;SDS011;13748;52.240;6.002;2022-08-01T05:27:32;4.30;;;3.65;;
25950;SDS011;13748;52.240;6.002;2022-08-01T05:30:06;7.28;;;3.78;;
25950;SDS011;13748;52.240;6.002;2022-08-01T05:32:37;5.68;;;3.45;;
25950;SDS011;13748;52.240;6.002;2022-08-01T05:35:14;5.20;;;3.80;;
25950;SDS011;13748;52.240;6.002;2022-08-01T05:37:45;7.82;;;3.67;;
25950;SDS011;13748;52.240;6.002;2022-08-01T05:40:12;5.30;;;3.83;;
25950;SDS011;13748;52.240;6.002;2022-08-01T05:42:45;4.53;;;3.40;;
25950;SDS011;13748;52.240;6.002;2022-08-01T05:45:12;5.82;;;4.00;;
25950;SDS011;13748;52.240;6.002;2022-08-01T05:47:39;5.03;;;3.85;;
25950;SDS011;13748;52.240;6.002;2022-08-01T05:50:09;4.88;;;3.65;;
25950;SDS011;13748;52.240;6.002;2022-08-01T05:52:40;4.63;;;3.50;;
25950;SDS011;13748;52.240;6.002;2022-08-01T05:55:11;5.28;;;3.83;;
25950;SDS011;13748;52.240;6.002;2022-08-01T05:57:43;4.50;;;3.75;;
25950;SDS011;13748;52.240;6.002;2022-08-01T06:00:19;5.63;;;3.70;;
25950;SDS011;13748;52.240;6.002;2022-08-01T06:03:00;7.13;;;4.10;;
25950;SDS011;13748;52.240;6.002;2022-08-01T06:05:31;4.25;;;3.85;;
25950;SDS011;13748;52.240;6.002;2022-08-01T06:08:10;3.95;;;3.55;;
25950;SDS011;13748;52.240;6.002;2022-08-01T06:11:05;6.28;;;3.70;;
25950;SDS011;13748;52.240;6.002;2022-08-01T06:13:40;6.65;;;3.58;;
25950;SDS011;13748;52.240;6.002;2022-08-01T06:16:18;4.82;;;3.42;;
25950;SDS011;13748;52.240;6.002;2022-08-01T06:18:46;5.10;;;3.20;;
25950;SDS011;13748;52.240;6.002;2022-08-01T06:21:24;6.00;;;3.42;;
25950;SDS011;13748;52.240;6.002;2022-08-01T06:24:14;5.13;;;3.42;;
25950;SDS011;13748;52.240;6.002;2022-08-01T06:26:55;4.57;;;3.08;;
25950;SDS011;13748;52.240;6.002;2022-08-01T06:29:24;7.93;;;4.50;;
25950;SDS011;13748;52.240;6.002;2022-08-01T06:31:58;6.70;;;3.65;;
25950;SDS011;13748;52.240;6.002;2022-08-01T06:34:26;4.25;;;3.40;;
25950;SDS011;13748;52.240;6.002;2022-08-01T06:36:56;6.72;;;3.10;;
25950;SDS011;13748;52.240;6.002;2022-08-01T06:39:38;5.22;;;3.00;;
25950;SDS011;13748;52.240;6.002;2022-08-01T06:42:11;5.90;;;3.33;;
25950;SDS011;13748;52.240;6.002;2022-08-01T06:44:38;5.00;;;2.72;;
25950;SDS011;13748;52.240;6.002;2022-08-01T06:47:12;6.38;;;2.88;;
25950;SDS011;13748;52.240;6.002;2022-08-01T06:49:46;4.00;;;3.45;;
25950;SDS011;13748;52.240;6.002;2022-08-01T06:52:13;4.47;;;3.25;;
25950;SDS011;13748;52.240;6.002;2022-08-01T06:54:48;4.90;;;3.00;;
25950;SDS011;13748;52.240;6.002;2022-08-01T06:57:19;5.22;;;2.50;;
25950;SDS011;13748;52.240;6.002;2022-08-01T06:59:46;4.70;;;3.00;;
25950;SDS011;13748;52.240;6.002;2022-08-01T07:02:20;4.32;;;2.50;;
25950;SDS011;13748;52.240;6.002;2022-08-01T07:04:49;3.20;;;2.60;;
25950;SDS011;13748;52.240;6.002;2022-08-01T07:07:30;4.63;;;2.50;;
25950;SDS011;13748;52.240;6.002;2022-08-01T07:10:00;4.88;;;2.60;;
25950;SDS011;13748;52.240;6.002;2022-08-01T07:12:38;5.03;;;2.70;;
25950;SDS011;13748;52.240;6.002;2022-08-01T07:15:10;5.72;;;2.67;;
25950;SDS011;13748;52.240;6.002;2022-08-01T07:17:39;3.75;;;2.22;;
25950;SDS011;13748;52.240;6.002;2022-08-01T07:20:14;4.68;;;2.72;;
25950;SDS011;13748;52.240;6.002;2022-08-01T07:22:47;3.15;;;2.20;;
25950;SDS011;13748;52.240;6.002;2022-08-01T07:25:21;3.45;;;2.25;;
25950;SDS011;13748;52.240;6.002;2022-08-01T07:27:52;8.60;;;2.63;;
25950;SDS011;13748;52.240;6.002;2022-08-01T07:30:22;7.13;;;2.78;;
25950;SDS011;13748;52.240;6.002;2022-08-01T07:32:57;4.07;;;3.30;;
25950;SDS011;13748;52.240;6.002;2022-08-01T07:36:15;5.20;;;3.35;;
25950;SDS011;13748;52.240;6.002;2022-08-01T07:38:54;4.22;;;2.70;;
25950;SDS011;13748;52.240;6.002;2022-08-01T07:41:25;5.10;;;3.05;;
25950;SDS011;13748;52.240;6.002;2022-08-01T07:44:21;4.60;;;3.25;;
25950;SDS011;13748;52.240;6.002;2022-08-01T07:46:58;4.85;;;2.75;;
25950;SDS011;13748;52.240;6.002;2022-08-01T07:49:26;5.20;;;3.17;;
25950;SDS011;13748;52.240;6.002;2022-08-01T07:51:53;10.38;;;4.00;;
25950;SDS011;13748;52.240;6.002;2022-08-01T07:54:31;6.40;;;3.47;;
25950;SDS011;13748;52.240;6.002;2022-08-01T07:57:17;9.20;;;3.53;;
25950;SDS011;13748;52.240;6.002;2022-08-01T08:02:40;7.90;;;3.17;;
25950;SDS011;13748;52.240;6.002;2022-08-01T08:05:27;10.40;;;3.10;;
25950;SDS011;13748;52.240;6.002;2022-08-01T08:08:16;11.98;;;3.63;;
25950;SDS011;13748;52.240;6.002;2022-08-01T08:10:59;10.85;;;3.53;;
25950;SDS011;13748;52.240;6.002;2022-08-01T08:13:34;10.85;;;3.15;;
25950;SDS011;13748;52.240;6.002;2022-08-01T08:16:20;12.02;;;3.95;;
25950;SDS011;13748;52.240;6.002;2022-08-01T08:18:56;7.93;;;2.95;;
25950;SDS011;13748;52.240;6.002;2022-08-01T08:21:30;7.68;;;3.13;;
25950;SDS011;13748;52.240;6.002;2022-08-01T08:23:59;10.32;;;3.40;;
25950;SDS011;13748;52.240;6.002;2022-08-01T08:27:01;13.00;;;3.10;;
25950;SDS011;13748;52.240;6.002;2022-08-01T08:29:35;8.70;;;3.22;;
25950;SDS011;13748;52.240;6.002;2022-08-01T08:32:10;12.82;;;3.63;;
25950;SDS011;13748;52.240;6.002;2022-08-01T08:34:45;6.55;;;3.38;;
25950;SDS011;13748;52.240;6.002;2022-08-01T08:40:14;11.80;;;3.42;;
25950;SDS011;13748;52.240;6.002;2022-08-01T08:42:41;10.18;;;3.80;;
25950;SDS011;13748;52.240;6.002;2022-08-01T08:45:10;6.55;;;2.90;;
25950;SDS011;13748;52.240;6.002;2022-08-01T08:47:37;9.10;;;3.60;;
25950;SDS011;13748;52.240;6.002;2022-08-01T08:50:05;9.50;;;3.38;;
25950;SDS011;13748;52.240;6.002;2022-08-01T08:52:33;12.85;;;3.83;;
25950;SDS011;13748;52.240;6.002;2022-08-01T08:55:04;9.85;;;3.25;;
25950;SDS011;13748;52.240;6.002;2022-08-01T08:57:31;11.50;;;3.30;;
25950;SDS011;13748;52.240;6.002;2022-08-01T08:59:59;9.57;;;3.10;;
25950;SDS011;13748;52.240;6.002;2022-08-01T09:02:26;12.80;;;3.72;;
25950;SDS011;13748;52.240;6.002;2022-08-01T09:04:53;9.40;;;3.55;;
25950;SDS011;13748;52.240;6.002;2022-08-01T09:07:20;10.55;;;3.88;;
25950;SDS011;13748;52.240;6.002;2022-08-01T09:09:49;9.32;;;4.07;;
25950;SDS011;13748;52.240;6.002;2022-08-01T09:12:17;8.88;;;3.30;;
25950;SDS011;13748;52.240;6.002;2022-08-01T09:14:45;12.82;;;3.10;;
25950;SDS011;13748;52.240;6.002;2022-08-01T09:17:13;8.77;;;3.00;;
25950;SDS011;13748;52.240;6.002;2022-08-01T09:19:44;8.05;;;3.00;;
25950;SDS011;13748;52.240;6.002;2022-08-01T09:22:16;11.95;;;3.60;;
25950;SDS011;13748;52.240;6.002;2022-08-01T09:27:35;10.23;;;3.60;;
25950;SDS011;13748;52.240;6.002;2022-08-01T09:30:12;9.63;;;3.42;;
25950;SDS011;13748;52.240;6.002;2022-08-01T09:32:53;9.38;;;2.50;;
25950;SDS011;13748;52.240;6.002;2022-08-01T09:35:27;11.00;;;3.20;;
25950;SDS011;13748;52.240;6.002;2022-08-01T09:38:19;6.53;;;2.70;;
25950;SDS011;13748;52.240;6.002;2022-08-01T09:43:16;7.10;;;2.15;;
25950;SDS011;13748;52.240;6.002;2022-08-01T09:45:44;6.50;;;2.30;;
25950;SDS011;13748;52.240;6.002;2022-08-01T09:48:15;8.77;;;2.45;;
25950;SDS011;13748;52.240;6.002;2022-08-01T09:50:43;6.63;;;2.30;;
25950;SDS011;13748;52.240;6.002;2022-08-01T09:53:11;11.30;;;2.25;;
25950;SDS011;13748;52.240;6.002;2022-08-01T09:56:07;7.32;;;2.10;;
25950;SDS011;13748;52.240;6.002;2022-08-01T09:58:59;4.00;;;1.90;;
25950;SDS011;13748;52.240;6.002;2022-08-01T10:01:49;5.20;;;1.80;;
25950;SDS011;13748;52.240;6.002;2022-08-01T10:04:19;3.30;;;1.50;;
25950;SDS011;13748;52.240;6.002;2022-08-01T10:06:47;4.65;;;1.90;;
25950;SDS011;13748;52.240;6.002;2022-08-01T10:09:30;6.32;;;1.80;;
25950;SDS011;13748;52.240;6.002;2022-08-01T10:12:06;6.88;;;1.70;;
25950;SDS011;13748;52.240;6.002;2022-08-01T10:14:34;7.15;;;1.85;;
25950;SDS011;13748;52.240;6.002;2022-08-01T10:17:11;5.47;;;1.60;;
25950;SDS011;13748;52.240;6.002;2022-08-01T10:19:45;6.55;;;2.03;;
25950;SDS011;13748;52.240;6.002;2022-08-01T10:22:13;8.02;;;1.95;;
25950;SDS011;13748;52.240;6.002;2022-08-01T10:24:44;4.93;;;1.58;;
25950;SDS011;13748;52.240;6.002;2022-08-01T10:27:14;7.40;;;1.55;;
25950;SDS011;13748;52.240;6.002;2022-08-01T10:30:02;7.95;;;1.90;;
25950;SDS011;13748;52.240;6.002;2022-08-01T10:32:46;4.80;;;1.98;;
25950;SDS011;13748;52.240;6.002;2022-08-01T10:35:16;7.53;;;2.10;;
25950;SDS011;13748;52.240;6.002;2022-08-01T10:38:04;5.57;;;2.22;;
25950;SDS011;13748;52.240;6.002;2022-08-01T10:40:35;5.47;;;2.50;;
25950;SDS011;13748;52.240;6.002;2022-08-01T10:43:04;7.45;;;1.70;;
25950;SDS011;13748;52.240;6.002;2022-08-01T10:45:32;6.05;;;1.60;;
25950;SDS011;13748;52.240;6.002;2022-08-01T10:48:22;4.80;;;1.50;;
25950;SDS011;13748;52.240;6.002;2022-08-01T10:50:52;5.13;;;1.52;;
25950;SDS011;13748;52.240;6.002;2022-08-01T10:53:22;3.75;;;1.63;;
25950;SDS011;13748;52.240;6.002;2022-08-01T10:56:07;6.53;;;1.80;;
25950;SDS011;13748;52.240;6.002;2022-08-01T10:58:42;4.90;;;1.60;;
25950;SDS011;13748;52.240;6.002;2022-08-01T11:03:58;6.45;;;1.98;;
25950;SDS011;13748;52.240;6.002;2022-08-01T11:09:00;7.35;;;2.00;;
25950;SDS011;13748;52.240;6.002;2022-08-01T11:11:31;10.40;;;2.20;;
25950;SDS011;13748;52.240;6.002;2022-08-01T11:14:03;8.27;;;2.60;;
25950;SDS011;13748;52.240;6.002;2022-08-01T11:16:37;6.97;;;2.00;;
25950;SDS011;13748;52.240;6.002;2022-08-01T11:19:06;6.45;;;2.17;;
25950;SDS011;13748;52.240;6.002;2022-08-01T11:27:16;7.07;;;1.92;;
25950;SDS011;13748;52.240;6.002;2022-08-01T11:32:48;8.48;;;2.25;;
25950;SDS011;13748;52.240;6.002;2022-08-01T11:35:37;10.27;;;2.95;;
25950;SDS011;13748;52.240;6.002;2022-08-01T11:38:25;5.53;;;1.90;;
25950;SDS011;13748;52.240;6.002;2022-08-01T11:41:10;6.90;;;2.20;;
25950;SDS011;13748;52.240;6.002;2022-08-01T11:43:57;7.75;;;2.22;;
25950;SDS011;13748;52.240;6.002;2022-08-01T11:52:15;7.45;;;2.17;;
25950;SDS011;13748;52.240;6.002;2022-08-01T11:55:07;6.40;;;1.92;;
25950;SDS011;13748;52.240;6.002;2022-08-01T11:57:37;4.07;;;2.38;;
25950;SDS011;13748;52.240;6.002;2022-08-01T12:00:14;6.68;;;2.10;;
25950;SDS011;13748;52.240;6.002;2022-08-01T12:02:44;5.57;;;1.95;;
25950;SDS011;13748;52.240;6.002;2022-08-01T12:05:13;6.57;;;1.95;;
25950;SDS011;13748;52.240;6.002;2022-08-01T12:07:44;6.45;;;1.70;;
25950;SDS011;13748;52.240;6.002;2022-08-01T12:10:16;6.60;;;1.65;;
25950;SDS011;13748;52.240;6.002;2022-08-01T12:12:45;6.90;;;2.08;;
25950;SDS011;13748;52.240;6.002;2022-08-01T12:15:14;12.13;;;2.35;;
25950;SDS011;13748;52.240;6.002;2022-08-01T12:17:46;7.60;;;2.25;;
25950;SDS011;13748;52.240;6.002;2022-08-01T12:20:26;5.70;;;2.13;;
25950;SDS011;13748;52.240;6.002;2022-08-01T12:22:58;10.45;;;2.65;;
25950;SDS011;13748;52.240;6.002;2022-08-01T12:25:31;6.40;;;2.42;;
25950;SDS011;13748;52.240;6.002;2022-08-01T12:28:03;8.68;;;2.22;;
25950;SDS011;13748;52.240;6.002;2022-08-01T12:30:31;8.05;;;2.20;;
25950;SDS011;13748;52.240;6.002;2022-08-01T12:33:03;7.40;;;1.98;;
25950;SDS011;13748;52.240;6.002;2022-08-01T12:35:32;8.18;;;2.72;;
25950;SDS011;13748;52.240;6.002;2022-08-01T12:38:02;6.03;;;2.33;;
25950;SDS011;13748;52.240;6.002;2022-08-01T12:40:34;4.70;;;1.70;;
25950;SDS011;13748;52.240;6.002;2022-08-01T12:43:14;5.43;;;1.85;;
25950;SDS011;13748;52.240;6.002;2022-08-01T12:45:54;7.18;;;1.95;;
25950;SDS011;13748;52.240;6.002;2022-08-01T12:48:23;9.13;;;2.13;;
25950;SDS011;13748;52.240;6.002;2022-08-01T12:50:51;6.55;;;2.00;;
25950;SDS011;13748;52.240;6.002;2022-08-01T12:53:19;5.20;;;1.75;;
25950;SDS011;13748;52.240;6.002;2022-08-01T12:55:51;4.32;;;1.45;;
25950;SDS011;13748;52.240;6.002;2022-08-01T12:58:31;5.38;;;1.70;;
25950;SDS011;13748;52.240;6.002;2022-08-01T13:01:06;4.50;;;1.70;;
25950;SDS011;13748;52.240;6.002;2022-08-01T13:03:37;3.78;;;1.77;;
25950;SDS011;13748;52.240;6.002;2022-08-01T13:06:22;3.67;;;1.30;;
25950;SDS011;13748;52.240;6.002;2022-08-01T13:08:54;6.68;;;1.98;;
25950;SDS011;13748;52.240;6.002;2022-08-01T13:11:21;2.72;;;1.33;;
25950;SDS011;13748;52.240;6.002;2022-08-01T13:13:51;4.00;;;1.50;;
25950;SDS011;13748;52.240;6.002;2022-08-01T13:16:20;3.70;;;1.50;;
25950;SDS011;13748;52.240;6.002;2022-08-01T13:19:03;3.70;;;1.70;;
25950;SDS011;13748;52.240;6.002;2022-08-01T13:21:31;6.50;;;1.73;;
25950;SDS011;13748;52.240;6.002;2022-08-01T13:24:22;3.50;;;1.55;;
25950;SDS011;13748;52.240;6.002;2022-08-01T13:26:53;5.30;;;1.50;;
25950;SDS011;13748;52.240;6.002;2022-08-01T13:29:34;4.63;;;1.30;;
25950;SDS011;13748;52.240;6.002;2022-08-01T13:32:14;4.40;;;1.58;;
25950;SDS011;13748;52.240;6.002;2022-08-01T13:35:05;2.92;;;1.40;;
25950;SDS011;13748;52.240;6.002;2022-08-01T13:37:34;3.53;;;1.30;;
25950;SDS011;13748;52.240;6.002;2022-08-01T13:40:04;3.90;;;1.48;;
25950;SDS011;13748;52.240;6.002;2022-08-01T13:42:35;3.08;;;1.40;;
25950;SDS011;13748;52.240;6.002;2022-08-01T13:45:02;3.38;;;1.50;;
25950;SDS011;13748;52.240;6.002;2022-08-01T13:47:40;2.60;;;1.33;;
25950;SDS011;13748;52.240;6.002;2022-08-01T13:50:27;3.80;;;1.20;;
25950;SDS011;13748;52.240;6.002;2022-08-01T13:52:54;4.93;;;1.38;;
25950;SDS011;13748;52.240;6.002;2022-08-01T13:55:21;3.88;;;1.45;;
25950;SDS011;13748;52.240;6.002;2022-08-01T13:57:48;2.50;;;1.23;;
25950;SDS011;13748;52.240;6.002;2022-08-01T14:00:16;3.20;;;1.33;;
25950;SDS011;13748;52.240;6.002;2022-08-01T14:02:43;4.03;;;1.58;;
25950;SDS011;13748;52.240;6.002;2022-08-01T14:05:09;2.05;;;1.20;;
25950;SDS011;13748;52.240;6.002;2022-08-01T14:07:37;2.03;;;1.20;;
25950;SDS011;13748;52.240;6.002;2022-08-01T14:10:06;4.63;;;1.52;;
25950;SDS011;13748;52.240;6.002;2022-08-01T14:12:45;4.35;;;1.35;;
25950;SDS011;13748;52.240;6.002;2022-08-01T14:15:13;4.85;;;1.40;;
25950;SDS011;13748;52.240;6.002;2022-08-01T14:17:59;2.72;;;1.48;;
25950;SDS011;13748;52.240;6.002;2022-08-01T14:20:26;4.78;;;1.77;;
25950;SDS011;13748;52.240;6.002;2022-08-01T14:22:53;3.30;;;1.20;;
25950;SDS011;13748;52.240;6.002;2022-08-01T14:25:20;3.80;;;1.38;;
25950;SDS011;13748;52.240;6.002;2022-08-01T14:28:07;4.93;;;1.52;;
25950;SDS011;13748;52.240;6.002;2022-08-01T14:30:34;5.30;;;1.58;;
25950;SDS011;13748;52.240;6.002;2022-08-01T14:33:01;5.22;;;1.73;;
25950;SDS011;13748;52.240;6.002;2022-08-01T14:35:28;4.03;;;1.40;;
25950;SDS011;13748;52.240;6.002;2022-08-01T14:38:14;2.75;;;1.35;;
25950;SDS011;13748;52.240;6.002;2022-08-01T14:40:56;4.47;;;1.50;;
25950;SDS011;13748;52.240;6.002;2022-08-01T14:43:24;6.00;;;1.48;;
25950;SDS011;13748;52.240;6.002;2022-08-01T14:45:58;3.67;;;1.75;;
25950;SDS011;13748;52.240;6.002;2022-08-01T14:48:30;2.25;;;1.38;;
25950;SDS011;13748;52.240;6.002;2022-08-01T14:50:57;2.63;;;1.20;;
25950;SDS011;13748;52.240;6.002;2022-08-01T14:53:28;3.75;;;1.48;;
25950;SDS011;13748;52.240;6.002;2022-08-01T14:55:55;2.13;;;1.20;;
25950;SDS011;13748;52.240;6.002;2022-08-01T14:58:22;3.05;;;1.50;;
25950;SDS011;13748;52.240;6.002;2022-08-01T15:00:48;3.50;;;1.50;;
25950;SDS011;13748;52.240;6.002;2022-08-01T15:03:20;5.07;;;1.08;;
25950;SDS011;13748;52.240;6.002;2022-08-01T15:05:47;4.70;;;1.40;;
25950;SDS011;13748;52.240;6.002;2022-08-01T15:08:14;4.53;;;1.15;;
25950;SDS011;13748;52.240;6.002;2022-08-01T15:10:41;2.60;;;1.27;;
25950;SDS011;13748;52.240;6.002;2022-08-01T15:13:07;4.10;;;1.13;;
25950;SDS011;13748;52.240;6.002;2022-08-01T15:15:35;3.47;;;1.27;;
25950;SDS011;13748;52.240;6.002;2022-08-01T15:18:02;3.28;;;1.13;;
25950;SDS011;13748;52.240;6.002;2022-08-01T15:20:29;2.58;;;1.20;;
25950;SDS011;13748;52.240;6.002;2022-08-01T15:22:56;3.05;;;0.93;;
25950;SDS011;13748;52.240;6.002;2022-08-01T15:25:22;4.78;;;1.00;;
25950;SDS011;13748;52.240;6.002;2022-08-01T15:27:49;6.20;;;1.48;;
25950;SDS011;13748;52.240;6.002;2022-08-01T15:30:16;3.22;;;1.05;;
25950;SDS011;13748;52.240;6.002;2022-08-01T15:32:52;2.85;;;0.95;;
25950;SDS011;13748;52.240;6.002;2022-08-01T15:35:19;4.55;;;1.00;;
25950;SDS011;13748;52.240;6.002;2022-08-01T15:37:46;2.05;;;1.08;;
25950;SDS011;13748;52.240;6.002;2022-08-01T15:40:12;1.83;;;1.30;;
25950;SDS011;13748;52.240;6.002;2022-08-01T15:42:39;3.13;;;2.30;;
25950;SDS011;13748;52.240;6.002;2022-08-01T15:45:06;4.88;;;1.73;;
25950;SDS011;13748;52.240;6.002;2022-08-01T15:47:54;2.03;;;0.80;;
25950;SDS011;13748;52.240;6.002;2022-08-01T15:50:21;4.22;;;1.05;;
25950;SDS011;13748;52.240;6.002;2022-08-01T15:52:48;6.80;;;1.98;;
25950;SDS011;13748;52.240;6.002;2022-08-01T15:55:14;3.42;;;1.30;;
25950;SDS011;13748;52.240;6.002;2022-08-01T15:57:41;4.60;;;1.23;;
25950;SDS011;13748;52.240;6.002;2022-08-01T16:00:08;2.80;;;1.30;;
25950;SDS011;13748;52.240;6.002;2022-08-01T16:02:36;4.60;;;1.67;;
25950;SDS011;13748;52.240;6.002;2022-08-01T16:05:02;2.17;;;0.90;;
25950;SDS011;13748;52.240;6.002;2022-08-01T16:07:30;2.67;;;0.95;;
25950;SDS011;13748;52.240;6.002;2022-08-01T16:09:57;6.07;;;1.75;;
25950;SDS011;13748;52.240;6.002;2022-08-01T16:12:23;4.63;;;1.25;;